Terminal Aerodrome Forecast
Issued by NWS

Home | Current Version | Previous Version | Text Only | Print | Product List | Glossary Off
Versions: 1 2 3 4 5 6 7 8 9 10 11 12 13 14 15 16 17 18 19

158
FTUS43 KMPX 152325
TAFRWF
TAF
KRWF 152325Z 1600/1624 32013KT P6SM SCT030
     FM160200 33008KT P6SM BKN030
     FM161000 VRB04KT P6SM BKN070
     FM161500 14009KT P6SM OVC100
     FM161800 14013G21KT P6SM BKN120=

USA.gov is the U.S. government's official web portal to all federal, state and local government web resources and services.